Denison, Iowa
Current Conditions -  °F | °C
As of 5:55 AM on Monday 22 Dec 2014 (Local Time) from KDNS Reporting Station
Unknown Precip Unknown Precip  
Wind Chill: 33°   Ceiling: 700
Heat Index: 41°   Visibility: 3mi
Dew Point: 41°   Wind: 14mph
Humidity: 100%   Direction: 160°SSE
Pressure: 29.54"   Gusts: 22mph
Location:  42.01°N, 95.35°W
Report Text: KDNS 221155Z AUTO 16012G19KT 3SM -UP OVC007 05/05 A2954 RMK AO2
Loading
Personal Weather Stations






























Interactive Weather Map New forecast layout! Learn more

10-Day Weather Forecast

Advertisements
Track Severe Weather on mobile